sensor_id;sensor_type;location;lat;lon;timestamp;P1;durP1;ratioP1;P2;durP2;ratioP2
38224;SDS011;24025;48.138;11.428;2022-07-23T00:01:05;5.33;;;4.83;;
38224;SDS011;24025;48.138;11.428;2022-07-23T00:03:36;7.40;;;4.77;;
38224;SDS011;24025;48.138;11.428;2022-07-23T00:06:06;6.93;;;5.10;;
38224;SDS011;24025;48.138;11.428;2022-07-23T00:08:37;7.07;;;5.60;;
38224;SDS011;24025;48.138;11.428;2022-07-23T00:11:07;6.10;;;4.83;;
38224;SDS011;24025;48.138;11.428;2022-07-23T00:13:38;5.60;;;5.10;;
38224;SDS011;24025;48.138;11.428;2022-07-23T00:16:08;8.70;;;5.67;;
38224;SDS011;24025;48.138;11.428;2022-07-23T00:18:39;5.83;;;5.23;;
38224;SDS011;24025;48.138;11.428;2022-07-23T00:21:10;7.00;;;5.10;;
38224;SDS011;24025;48.138;11.428;2022-07-23T00:23:40;7.10;;;5.47;;
38224;SDS011;24025;48.138;11.428;2022-07-23T00:26:10;6.40;;;5.17;;
38224;SDS011;24025;48.138;11.428;2022-07-23T00:28:41;6.80;;;5.40;;
38224;SDS011;24025;48.138;11.428;2022-07-23T00:31:11;8.17;;;5.77;;
38224;SDS011;24025;48.138;11.428;2022-07-23T00:33:42;6.30;;;5.00;;
38224;SDS011;24025;48.138;11.428;2022-07-23T00:36:12;6.07;;;5.47;;
38224;SDS011;24025;48.138;11.428;2022-07-23T00:38:42;7.20;;;4.90;;
38224;SDS011;24025;48.138;11.428;2022-07-23T00:41:13;7.57;;;5.47;;
38224;SDS011;24025;48.138;11.428;2022-07-23T00:43:43;9.97;;;5.83;;
38224;SDS011;24025;48.138;11.428;2022-07-23T00:46:18;9.53;;;5.17;;
38224;SDS011;24025;48.138;11.428;2022-07-23T00:48:52;7.68;;;4.78;;
38224;SDS011;24025;48.138;11.428;2022-07-23T00:51:22;8.33;;;5.27;;
38224;SDS011;24025;48.138;11.428;2022-07-23T00:53:53;6.87;;;5.80;;
38224;SDS011;24025;48.138;11.428;2022-07-23T00:56:23;5.93;;;4.80;;
38224;SDS011;24025;48.138;11.428;2022-07-23T00:58:54;7.17;;;5.17;;
38224;SDS011;24025;48.138;11.428;2022-07-23T01:01:25;9.18;;;5.32;;
38224;SDS011;24025;48.138;11.428;2022-07-23T01:03:55;5.43;;;4.90;;
38224;SDS011;24025;48.138;11.428;2022-07-23T01:06:26;6.00;;;5.40;;
38224;SDS011;24025;48.138;11.428;2022-07-23T01:08:57;6.10;;;5.60;;
38224;SDS011;24025;48.138;11.428;2022-07-23T01:11:27;10.67;;;6.73;;
38224;SDS011;24025;48.138;11.428;2022-07-23T01:13:57;9.30;;;6.37;;
38224;SDS011;24025;48.138;11.428;2022-07-23T01:16:28;6.90;;;6.17;;
38224;SDS011;24025;48.138;11.428;2022-07-23T01:18:58;10.37;;;6.30;;
38224;SDS011;24025;48.138;11.428;2022-07-23T01:21:29;9.77;;;5.73;;
38224;SDS011;24025;48.138;11.428;2022-07-23T01:24:00;7.15;;;5.43;;
38224;SDS011;24025;48.138;11.428;2022-07-23T01:26:31;8.73;;;4.83;;
38224;SDS011;24025;48.138;11.428;2022-07-23T01:29:02;8.55;;;5.40;;
38224;SDS011;24025;48.138;11.428;2022-07-23T01:31:33;10.95;;;5.25;;
38224;SDS011;24025;48.138;11.428;2022-07-23T01:34:03;10.30;;;6.20;;
38224;SDS011;24025;48.138;11.428;2022-07-23T01:36:35;19.70;;;6.70;;
38224;SDS011;24025;48.138;11.428;2022-07-23T01:39:06;14.57;;;5.75;;
38224;SDS011;24025;48.138;11.428;2022-07-23T01:41:37;14.55;;;6.80;;
38224;SDS011;24025;48.138;11.428;2022-07-23T01:44:07;9.40;;;6.22;;
38224;SDS011;24025;48.138;11.428;2022-07-23T01:46:38;9.85;;;6.28;;
38224;SDS011;24025;48.138;11.428;2022-07-23T01:49:09;10.30;;;6.68;;
38224;SDS011;24025;48.138;11.428;2022-07-23T01:51:40;12.45;;;6.70;;
38224;SDS011;24025;48.138;11.428;2022-07-23T01:54:30;7.63;;;6.15;;
38224;SDS011;24025;48.138;11.428;2022-07-23T01:57:02;11.02;;;5.63;;
38224;SDS011;24025;48.138;11.428;2022-07-23T01:59:32;10.38;;;7.03;;
38224;SDS011;24025;48.138;11.428;2022-07-23T02:02:03;8.30;;;6.10;;
38224;SDS011;24025;48.138;11.428;2022-07-23T02:04:33;7.45;;;5.47;;
38224;SDS011;24025;48.138;11.428;2022-07-23T02:07:06;8.50;;;5.75;;
38224;SDS011;24025;48.138;11.428;2022-07-23T02:09:36;8.60;;;5.07;;
38224;SDS011;24025;48.138;11.428;2022-07-23T02:12:07;13.88;;;5.30;;
38224;SDS011;24025;48.138;11.428;2022-07-23T02:14:37;6.85;;;4.35;;
38224;SDS011;24025;48.138;11.428;2022-07-23T02:17:08;7.55;;;4.15;;
38224;SDS011;24025;48.138;11.428;2022-07-23T02:19:38;5.13;;;3.78;;
38224;SDS011;24025;48.138;11.428;2022-07-23T02:22:08;5.28;;;3.88;;
38224;SDS011;24025;48.138;11.428;2022-07-23T02:24:39;9.73;;;3.97;;
38224;SDS011;24025;48.138;11.428;2022-07-23T02:27:09;10.05;;;3.72;;
38224;SDS011;24025;48.138;11.428;2022-07-23T02:29:40;15.18;;;5.20;;
38224;SDS011;24025;48.138;11.428;2022-07-23T02:32:10;8.65;;;3.72;;
38224;SDS011;24025;48.138;11.428;2022-07-23T02:34:40;5.13;;;3.30;;
38224;SDS011;24025;48.138;11.428;2022-07-23T02:37:11;2.97;;;2.05;;
38224;SDS011;24025;48.138;11.428;2022-07-23T02:39:41;5.05;;;2.33;;
38224;SDS011;24025;48.138;11.428;2022-07-23T02:42:12;4.00;;;2.55;;
38224;SDS011;24025;48.138;11.428;2022-07-23T02:44:42;3.40;;;2.03;;
38224;SDS011;24025;48.138;11.428;2022-07-23T02:47:12;5.03;;;2.30;;
38224;SDS011;24025;48.138;11.428;2022-07-23T02:49:43;5.75;;;2.13;;
38224;SDS011;24025;48.138;11.428;2022-07-23T02:52:13;3.78;;;2.83;;
38224;SDS011;24025;48.138;11.428;2022-07-23T02:54:44;2.67;;;1.83;;
38224;SDS011;24025;48.138;11.428;2022-07-23T02:57:14;4.55;;;2.28;;
38224;SDS011;24025;48.138;11.428;2022-07-23T02:59:44;3.03;;;2.25;;
38224;SDS011;24025;48.138;11.428;2022-07-23T03:02:15;4.85;;;2.60;;
38224;SDS011;24025;48.138;11.428;2022-07-23T03:04:45;4.15;;;2.40;;
38224;SDS011;24025;48.138;11.428;2022-07-23T03:07:16;3.05;;;2.17;;
38224;SDS011;24025;48.138;11.428;2022-07-23T03:09:47;3.70;;;2.42;;
38224;SDS011;24025;48.138;11.428;2022-07-23T03:12:18;2.50;;;2.30;;
38224;SDS011;24025;48.138;11.428;2022-07-23T03:14:48;3.55;;;2.30;;
38224;SDS011;24025;48.138;11.428;2022-07-23T03:17:18;8.95;;;2.30;;
38224;SDS011;24025;48.138;11.428;2022-07-23T03:19:49;3.65;;;2.58;;
38224;SDS011;24025;48.138;11.428;2022-07-23T03:22:19;3.72;;;2.75;;
38224;SDS011;24025;48.138;11.428;2022-07-23T03:24:50;3.97;;;2.58;;
38224;SDS011;24025;48.138;11.428;2022-07-23T03:27:27;3.97;;;2.78;;
38224;SDS011;24025;48.138;11.428;2022-07-23T03:29:59;3.15;;;2.45;;
38224;SDS011;24025;48.138;11.428;2022-07-23T03:32:30;6.28;;;2.65;;
38224;SDS011;24025;48.138;11.428;2022-07-23T03:35:01;4.95;;;3.25;;
38224;SDS011;24025;48.138;11.428;2022-07-23T03:37:31;4.35;;;3.17;;
38224;SDS011;24025;48.138;11.428;2022-07-23T03:40:02;3.42;;;3.00;;
38224;SDS011;24025;48.138;11.428;2022-07-23T03:42:33;3.83;;;3.45;;
38224;SDS011;24025;48.138;11.428;2022-07-23T03:45:03;3.50;;;3.05;;
38224;SDS011;24025;48.138;11.428;2022-07-23T03:47:34;4.77;;;3.37;;
38224;SDS011;24025;48.138;11.428;2022-07-23T03:50:05;5.85;;;3.45;;
38224;SDS011;24025;48.138;11.428;2022-07-23T03:52:36;4.00;;;3.58;;
38224;SDS011;24025;48.138;11.428;2022-07-23T03:55:06;4.10;;;3.42;;
38224;SDS011;24025;48.138;11.428;2022-07-23T03:57:37;3.85;;;3.20;;
38224;SDS011;24025;48.138;11.428;2022-07-23T04:00:08;3.83;;;3.42;;
38224;SDS011;24025;48.138;11.428;2022-07-23T04:02:39;3.30;;;3.00;;
38224;SDS011;24025;48.138;11.428;2022-07-23T04:05:10;4.65;;;3.58;;
38224;SDS011;24025;48.138;11.428;2022-07-23T04:07:40;3.72;;;3.05;;
38224;SDS011;24025;48.138;11.428;2022-07-23T04:10:11;4.60;;;3.00;;
38224;SDS011;24025;48.138;11.428;2022-07-23T04:12:41;3.30;;;3.00;;
38224;SDS011;24025;48.138;11.428;2022-07-23T04:15:11;4.30;;;3.78;;
38224;SDS011;24025;48.138;11.428;2022-07-23T04:17:42;4.45;;;3.50;;
38224;SDS011;24025;48.138;11.428;2022-07-23T04:20:13;7.78;;;3.45;;
38224;SDS011;24025;48.138;11.428;2022-07-23T04:22:44;7.05;;;4.75;;
38224;SDS011;24025;48.138;11.428;2022-07-23T04:25:14;3.67;;;3.33;;
38224;SDS011;24025;48.138;11.428;2022-07-23T04:27:46;4.55;;;3.13;;
38224;SDS011;24025;48.138;11.428;2022-07-23T04:30:17;3.80;;;3.20;;
38224;SDS011;24025;48.138;11.428;2022-07-23T04:32:47;3.80;;;3.40;;
38224;SDS011;24025;48.138;11.428;2022-07-23T04:35:18;4.00;;;3.13;;
38224;SDS011;24025;48.138;11.428;2022-07-23T04:37:48;4.05;;;3.42;;
38224;SDS011;24025;48.138;11.428;2022-07-23T04:40:18;6.28;;;3.90;;
38224;SDS011;24025;48.138;11.428;2022-07-23T04:42:49;8.88;;;3.90;;
38224;SDS011;24025;48.138;11.428;2022-07-23T04:45:19;3.83;;;3.33;;
38224;SDS011;24025;48.138;11.428;2022-07-23T04:47:50;5.55;;;3.67;;
38224;SDS011;24025;48.138;11.428;2022-07-23T04:50:20;4.72;;;3.95;;
38224;SDS011;24025;48.138;11.428;2022-07-23T04:52:51;4.25;;;3.85;;
38224;SDS011;24025;48.138;11.428;2022-07-23T04:55:21;5.07;;;3.80;;
38224;SDS011;24025;48.138;11.428;2022-07-23T04:57:52;4.15;;;3.75;;
38224;SDS011;24025;48.138;11.428;2022-07-23T05:00:22;4.60;;;3.70;;
38224;SDS011;24025;48.138;11.428;2022-07-23T05:02:53;4.25;;;3.65;;
38224;SDS011;24025;48.138;11.428;2022-07-23T05:05:23;7.35;;;3.50;;
38224;SDS011;24025;48.138;11.428;2022-07-23T05:07:53;4.43;;;3.20;;
38224;SDS011;24025;48.138;11.428;2022-07-23T05:10:24;4.47;;;3.60;;
38224;SDS011;24025;48.138;11.428;2022-07-23T05:12:54;3.67;;;3.38;;
38224;SDS011;24025;48.138;11.428;2022-07-23T05:15:25;4.90;;;3.58;;
38224;SDS011;24025;48.138;11.428;2022-07-23T05:17:55;3.80;;;3.42;;
38224;SDS011;24025;48.138;11.428;2022-07-23T05:20:25;6.57;;;4.00;;
38224;SDS011;24025;48.138;11.428;2022-07-23T05:22:56;7.55;;;4.10;;
38224;SDS011;24025;48.138;11.428;2022-07-23T05:25:26;6.88;;;3.65;;
38224;SDS011;24025;48.138;11.428;2022-07-23T05:27:57;7.80;;;4.18;;
38224;SDS011;24025;48.138;11.428;2022-07-23T05:30:27;5.32;;;3.95;;
38224;SDS011;24025;48.138;11.428;2022-07-23T05:32:58;7.05;;;3.72;;
38224;SDS011;24025;48.138;11.428;2022-07-23T05:35:28;8.82;;;3.90;;
38224;SDS011;24025;48.138;11.428;2022-07-23T05:37:59;4.47;;;3.58;;
38224;SDS011;24025;48.138;11.428;2022-07-23T05:40:29;6.90;;;3.90;;
38224;SDS011;24025;48.138;11.428;2022-07-23T05:43:00;5.20;;;3.80;;
38224;SDS011;24025;48.138;11.428;2022-07-23T05:45:30;4.95;;;3.92;;
38224;SDS011;24025;48.138;11.428;2022-07-23T05:48:01;8.15;;;3.88;;
38224;SDS011;24025;48.138;11.428;2022-07-23T05:50:31;4.55;;;3.55;;
38224;SDS011;24025;48.138;11.428;2022-07-23T05:53:01;5.82;;;4.22;;
38224;SDS011;24025;48.138;11.428;2022-07-23T05:55:32;6.00;;;3.80;;
38224;SDS011;24025;48.138;11.428;2022-07-23T05:58:02;6.03;;;4.50;;
38224;SDS011;24025;48.138;11.428;2022-07-23T06:00:33;3.97;;;3.65;;
38224;SDS011;24025;48.138;11.428;2022-07-23T06:03:03;7.47;;;4.15;;
38224;SDS011;24025;48.138;11.428;2022-07-23T06:05:34;4.88;;;4.30;;
38224;SDS011;24025;48.138;11.428;2022-07-23T06:08:04;8.35;;;4.78;;
38224;SDS011;24025;48.138;11.428;2022-07-23T06:10:35;4.68;;;4.22;;
38224;SDS011;24025;48.138;11.428;2022-07-23T06:13:05;4.78;;;4.30;;
38224;SDS011;24025;48.138;11.428;2022-07-23T06:15:36;6.72;;;4.30;;
38224;SDS011;24025;48.138;11.428;2022-07-23T06:18:06;7.45;;;4.82;;
38224;SDS011;24025;48.138;11.428;2022-07-23T06:20:36;5.25;;;4.68;;
38224;SDS011;24025;48.138;11.428;2022-07-23T06:23:07;6.70;;;4.75;;
38224;SDS011;24025;48.138;11.428;2022-07-23T06:25:38;4.85;;;4.43;;
38224;SDS011;24025;48.138;11.428;2022-07-23T06:28:08;5.85;;;4.20;;
38224;SDS011;24025;48.138;11.428;2022-07-23T06:30:39;4.88;;;4.47;;
38224;SDS011;24025;48.138;11.428;2022-07-23T06:33:09;7.35;;;4.32;;
38224;SDS011;24025;48.138;11.428;2022-07-23T06:38:11;5.65;;;4.28;;
38224;SDS011;24025;48.138;11.428;2022-07-23T06:40:42;5.20;;;4.70;;
38224;SDS011;24025;48.138;11.428;2022-07-23T06:43:14;7.18;;;4.60;;
38224;SDS011;24025;48.138;11.428;2022-07-23T06:45:45;5.40;;;4.43;;
38224;SDS011;24025;48.138;11.428;2022-07-23T06:48:15;4.78;;;4.38;;
38224;SDS011;24025;48.138;11.428;2022-07-23T06:50:46;5.28;;;4.35;;
38224;SDS011;24025;48.138;11.428;2022-07-23T06:53:16;4.78;;;4.30;;
38224;SDS011;24025;48.138;11.428;2022-07-23T06:55:46;4.82;;;4.32;;
38224;SDS011;24025;48.138;11.428;2022-07-23T06:58:17;5.70;;;5.15;;
38224;SDS011;24025;48.138;11.428;2022-07-23T07:03:19;7.55;;;4.68;;
38224;SDS011;24025;48.138;11.428;2022-07-23T07:05:50;5.32;;;4.82;;
38224;SDS011;24025;48.138;11.428;2022-07-23T07:08:20;5.22;;;4.72;;
38224;SDS011;24025;48.138;11.428;2022-07-23T07:10:50;8.48;;;4.55;;
38224;SDS011;24025;48.138;11.428;2022-07-23T07:13:21;5.60;;;5.05;;
38224;SDS011;24025;48.138;11.428;2022-07-23T07:15:51;5.95;;;4.95;;
38224;SDS011;24025;48.138;11.428;2022-07-23T07:18:22;6.97;;;4.30;;
38224;SDS011;24025;48.138;11.428;2022-07-23T07:20:52;5.80;;;4.90;;
38224;SDS011;24025;48.138;11.428;2022-07-23T07:23:23;6.70;;;4.80;;
38224;SDS011;24025;48.138;11.428;2022-07-23T07:25:53;5.20;;;4.70;;
38224;SDS011;24025;48.138;11.428;2022-07-23T07:28:24;4.35;;;3.95;;
38224;SDS011;24025;48.138;11.428;2022-07-23T07:30:54;6.20;;;4.38;;
38224;SDS011;24025;48.138;11.428;2022-07-23T07:33:25;8.10;;;4.50;;
38224;SDS011;24025;48.138;11.428;2022-07-23T07:35:55;7.75;;;4.25;;
38224;SDS011;24025;48.138;11.428;2022-07-23T07:38:26;10.43;;;4.90;;
38224;SDS011;24025;48.138;11.428;2022-07-23T07:40:56;9.20;;;4.93;;
38224;SDS011;24025;48.138;11.428;2022-07-23T07:43:27;7.32;;;4.90;;
38224;SDS011;24025;48.138;11.428;2022-07-23T07:45:57;4.63;;;4.22;;
38224;SDS011;24025;48.138;11.428;2022-07-23T07:48:27;6.90;;;4.40;;
38224;SDS011;24025;48.138;11.428;2022-07-23T07:50:58;5.47;;;4.28;;
38224;SDS011;24025;48.138;11.428;2022-07-23T07:53:28;6.18;;;4.45;;
38224;SDS011;24025;48.138;11.428;2022-07-23T07:55:59;9.48;;;4.65;;
38224;SDS011;24025;48.138;11.428;2022-07-23T07:58:29;7.78;;;5.68;;
38224;SDS011;24025;48.138;11.428;2022-07-23T08:01:00;9.68;;;4.70;;
38224;SDS011;24025;48.138;11.428;2022-07-23T08:03:30;5.18;;;4.68;;
38224;SDS011;24025;48.138;11.428;2022-07-23T08:06:00;7.28;;;4.88;;
38224;SDS011;24025;48.138;11.428;2022-07-23T08:08:31;6.00;;;4.85;;
38224;SDS011;24025;48.138;11.428;2022-07-23T08:11:01;7.00;;;4.95;;
38224;SDS011;24025;48.138;11.428;2022-07-23T08:13:32;10.15;;;4.60;;
38224;SDS011;24025;48.138;11.428;2022-07-23T08:16:02;9.38;;;4.75;;
38224;SDS011;24025;48.138;11.428;2022-07-23T08:18:33;8.38;;;4.88;;
38224;SDS011;24025;48.138;11.428;2022-07-23T08:21:03;7.60;;;4.35;;
38224;SDS011;24025;48.138;11.428;2022-07-23T08:23:35;8.80;;;5.35;;
38224;SDS011;24025;48.138;11.428;2022-07-23T08:26:05;8.10;;;4.40;;
38224;SDS011;24025;48.138;11.428;2022-07-23T08:28:36;6.55;;;5.13;;
38224;SDS011;24025;48.138;11.428;2022-07-23T08:31:07;5.90;;;4.82;;
38224;SDS011;24025;48.138;11.428;2022-07-23T08:33:37;7.88;;;5.20;;
38224;SDS011;24025;48.138;11.428;2022-07-23T08:36:08;6.93;;;4.78;;
38224;SDS011;24025;48.138;11.428;2022-07-23T08:38:38;6.03;;;4.60;;
38224;SDS011;24025;48.138;11.428;2022-07-23T08:41:09;8.05;;;4.38;;
38224;SDS011;24025;48.138;11.428;2022-07-23T08:43:40;5.50;;;3.60;;
38224;SDS011;24025;48.138;11.428;2022-07-23T08:46:11;8.82;;;4.35;;
38224;SDS011;24025;48.138;11.428;2022-07-23T08:48:43;6.82;;;4.63;;
38224;SDS011;24025;48.138;11.428;2022-07-23T08:51:16;4.70;;;4.25;;
38224;SDS011;24025;48.138;11.428;2022-07-23T08:53:47;6.20;;;4.10;;
38224;SDS011;24025;48.138;11.428;2022-07-23T08:56:18;4.87;;;4.47;;
38224;SDS011;24025;48.138;11.428;2022-07-23T08:58:48;6.65;;;4.18;;
38224;SDS011;24025;48.138;11.428;2022-07-23T09:01:19;4.72;;;3.80;;
38224;SDS011;24025;48.138;11.428;2022-07-23T09:03:49;6.55;;;5.05;;
38224;SDS011;24025;48.138;11.428;2022-07-23T09:06:19;4.73;;;4.27;;
38224;SDS011;24025;48.138;11.428;2022-07-23T09:08:50;6.65;;;4.22;;
38224;SDS011;24025;48.138;11.428;2022-07-23T09:11:20;9.75;;;5.15;;
38224;SDS011;24025;48.138;11.428;2022-07-23T09:13:51;5.00;;;4.37;;
38224;SDS011;24025;48.138;11.428;2022-07-23T09:16:28;5.35;;;4.82;;
38224;SDS011;24025;48.138;11.428;2022-07-23T09:19:01;6.05;;;4.60;;
38224;SDS011;24025;48.138;11.428;2022-07-23T09:21:34;5.30;;;4.47;;
38224;SDS011;24025;48.138;11.428;2022-07-23T09:29:20;4.60;;;4.07;;
38224;SDS011;24025;48.138;11.428;2022-07-23T09:31:58;6.53;;;4.18;;
38224;SDS011;24025;48.138;11.428;2022-07-23T09:34:30;7.32;;;4.60;;
38224;SDS011;24025;48.138;11.428;2022-07-23T09:37:09;11.85;;;4.45;;
38224;SDS011;24025;48.138;11.428;2022-07-23T09:39:40;7.15;;;3.63;;
38224;SDS011;24025;48.138;11.428;2022-07-23T09:42:22;8.35;;;4.10;;
38224;SDS011;24025;48.138;11.428;2022-07-23T09:44:55;5.72;;;3.40;;
38224;SDS011;24025;48.138;11.428;2022-07-23T09:47:28;5.00;;;3.67;;
38224;SDS011;24025;48.138;11.428;2022-07-23T09:52:41;4.57;;;3.92;;
38224;SDS011;24025;48.138;11.428;2022-07-23T09:55:14;3.65;;;3.33;;
38224;SDS011;24025;48.138;11.428;2022-07-23T09:57:48;5.43;;;3.35;;
38224;SDS011;24025;48.138;11.428;2022-07-23T10:00:24;5.30;;;3.42;;
38224;SDS011;24025;48.138;11.428;2022-07-23T10:02:55;4.32;;;3.63;;
38224;SDS011;24025;48.138;11.428;2022-07-23T10:05:27;3.78;;;3.47;;
38224;SDS011;24025;48.138;11.428;2022-07-23T10:08:01;4.70;;;3.78;;
38224;SDS011;24025;48.138;11.428;2022-07-23T10:13:02;5.40;;;3.83;;
38224;SDS011;24025;48.138;11.428;2022-07-23T10:15:52;7.85;;;3.90;;
38224;SDS011;24025;48.138;11.428;2022-07-23T10:18:24;3.75;;;3.08;;
38224;SDS011;24025;48.138;11.428;2022-07-23T10:20:55;3.60;;;3.30;;
38224;SDS011;24025;48.138;11.428;2022-07-23T10:23:36;5.53;;;3.67;;
38224;SDS011;24025;48.138;11.428;2022-07-23T10:26:17;4.28;;;3.60;;
38224;SDS011;24025;48.138;11.428;2022-07-23T10:34:41;5.05;;;3.13;;
38224;SDS011;24025;48.138;11.428;2022-07-23T10:40:18;3.90;;;3.20;;
38224;SDS011;24025;48.138;11.428;2022-07-23T10:42:51;3.80;;;3.20;;
38224;SDS011;24025;48.138;11.428;2022-07-23T10:48:17;3.78;;;3.38;;
38224;SDS011;24025;48.138;11.428;2022-07-23T10:53:59;4.13;;;3.10;;
38224;SDS011;24025;48.138;11.428;2022-07-23T11:02:41;7.45;;;3.22;;
38224;SDS011;24025;48.138;11.428;2022-07-23T11:05:17;5.72;;;4.43;;
38224;SDS011;24025;48.138;11.428;2022-07-23T11:18:57;5.80;;;3.85;;
38224;SDS011;24025;48.138;11.428;2022-07-23T11:24:17;8.33;;;3.73;;
38224;SDS011;24025;48.138;11.428;2022-07-23T11:26:56;5.28;;;4.03;;
38224;SDS011;24025;48.138;11.428;2022-07-23T11:32:14;6.10;;;4.25;;
38224;SDS011;24025;48.138;11.428;2022-07-23T11:34:55;6.07;;;4.20;;
38224;SDS011;24025;48.138;11.428;2022-07-23T11:40:12;7.65;;;3.88;;
38224;SDS011;24025;48.138;11.428;2022-07-23T11:43:00;6.38;;;4.38;;
38224;SDS011;24025;48.138;11.428;2022-07-23T11:45:36;5.82;;;4.35;;
38224;SDS011;24025;48.138;11.428;2022-07-23T11:48:09;4.75;;;4.30;;
38224;SDS011;24025;48.138;11.428;2022-07-23T11:50:46;5.03;;;4.45;;
38224;SDS011;24025;48.138;11.428;2022-07-23T11:53:26;5.30;;;4.27;;
38224;SDS011;24025;48.138;11.428;2022-07-23T11:58:38;5.00;;;4.50;;
38224;SDS011;24025;48.138;11.428;2022-07-23T12:01:09;6.40;;;4.27;;
38224;SDS011;24025;48.138;11.428;2022-07-23T12:03:50;6.23;;;5.13;;
38224;SDS011;24025;48.138;11.428;2022-07-23T12:06:21;6.93;;;4.97;;
38224;SDS011;24025;48.138;11.428;2022-07-23T12:08:51;5.63;;;4.10;;
38224;SDS011;24025;48.138;11.428;2022-07-23T12:11:22;5.03;;;4.43;;
38224;SDS011;24025;48.138;11.428;2022-07-23T12:13:56;6.57;;;3.83;;
38224;SDS011;24025;48.138;11.428;2022-07-23T12:16:27;6.90;;;4.88;;
38224;SDS011;24025;48.138;11.428;2022-07-23T12:18:57;6.83;;;4.30;;
38224;SDS011;24025;48.138;11.428;2022-07-23T12:21:28;6.73;;;3.87;;
38224;SDS011;24025;48.138;11.428;2022-07-23T12:24:07;4.27;;;3.87;;
38224;SDS011;24025;48.138;11.428;2022-07-23T12:26:38;4.15;;;3.75;;
38224;SDS011;24025;48.138;11.428;2022-07-23T12:29:08;5.40;;;3.57;;
38224;SDS011;24025;48.138;11.428;2022-07-23T12:31:39;5.23;;;3.70;;
38224;SDS011;24025;48.138;11.428;2022-07-23T12:34:14;5.60;;;3.83;;
38224;SDS011;24025;48.138;11.428;2022-07-23T12:36:45;5.50;;;4.45;;
38224;SDS011;24025;48.138;11.428;2022-07-23T12:39:29;5.72;;;4.15;;
38224;SDS011;24025;48.138;11.428;2022-07-23T12:42:02;5.32;;;4.18;;
38224;SDS011;24025;48.138;11.428;2022-07-23T12:44:41;4.95;;;4.07;;
38224;SDS011;24025;48.138;11.428;2022-07-23T12:47:11;6.47;;;4.20;;
38224;SDS011;24025;48.138;11.428;2022-07-23T12:49:41;4.97;;;4.17;;
38224;SDS011;24025;48.138;11.428;2022-07-23T12:52:15;6.77;;;3.83;;
38224;SDS011;24025;48.138;11.428;2022-07-23T12:54:46;6.03;;;4.20;;
38224;SDS011;24025;48.138;11.428;2022-07-23T12:57:17;7.87;;;4.53;;
38224;SDS011;24025;48.138;11.428;2022-07-23T12:59:47;5.53;;;4.40;;
38224;SDS011;24025;48.138;11.428;2022-07-23T13:02:18;6.47;;;4.37;;
38224;SDS011;24025;48.138;11.428;2022-07-23T13:04:48;5.87;;;4.47;;
38224;SDS011;24025;48.138;11.428;2022-07-23T13:07:18;5.77;;;4.23;;
38224;SDS011;24025;48.138;11.428;2022-07-23T13:09:49;4.97;;;4.13;;
38224;SDS011;24025;48.138;11.428;2022-07-23T13:12:20;5.63;;;3.80;;
38224;SDS011;24025;48.138;11.428;2022-07-23T13:14:50;5.20;;;4.43;;
38224;SDS011;24025;48.138;11.428;2022-07-23T13:17:21;6.13;;;4.47;;
38224;SDS011;24025;48.138;11.428;2022-07-23T13:19:51;6.83;;;4.57;;
38224;SDS011;24025;48.138;11.428;2022-07-23T13:22:21;4.90;;;4.33;;
38224;SDS011;24025;48.138;11.428;2022-07-23T13:24:52;5.40;;;4.90;;
38224;SDS011;24025;48.138;11.428;2022-07-23T13:27:22;5.80;;;4.47;;
38224;SDS011;24025;48.138;11.428;2022-07-23T13:29:53;6.43;;;4.97;;
38224;SDS011;24025;48.138;11.428;2022-07-23T13:32:23;6.90;;;4.67;;
38224;SDS011;24025;48.138;11.428;2022-07-23T13:34:53;6.37;;;4.27;;
38224;SDS011;24025;48.138;11.428;2022-07-23T13:37:24;4.63;;;4.23;;
38224;SDS011;24025;48.138;11.428;2022-07-23T13:39:54;6.50;;;4.30;;
38224;SDS011;24025;48.138;11.428;2022-07-23T13:42:24;5.03;;;4.50;;
38224;SDS011;24025;48.138;11.428;2022-07-23T13:44:55;4.50;;;4.10;;
38224;SDS011;24025;48.138;11.428;2022-07-23T13:47:25;8.43;;;4.17;;
38224;SDS011;24025;48.138;11.428;2022-07-23T13:49:56;5.17;;;4.67;;
38224;SDS011;24025;48.138;11.428;2022-07-23T13:52:26;5.97;;;4.80;;
38224;SDS011;24025;48.138;11.428;2022-07-23T13:54:57;6.90;;;4.83;;
38224;SDS011;24025;48.138;11.428;2022-07-23T13:57:27;4.30;;;3.87;;
38224;SDS011;24025;48.138;11.428;2022-07-23T13:59:57;6.43;;;4.03;;
38224;SDS011;24025;48.138;11.428;2022-07-23T14:02:28;5.10;;;4.07;;
38224;SDS011;24025;48.138;11.428;2022-07-23T14:04:59;5.53;;;4.53;;
38224;SDS011;24025;48.138;11.428;2022-07-23T14:07:29;4.57;;;4.17;;
38224;SDS011;24025;48.138;11.428;2022-07-23T14:10:00;6.93;;;4.77;;
38224;SDS011;24025;48.138;11.428;2022-07-23T14:12:31;7.32;;;4.40;;
38224;SDS011;24025;48.138;11.428;2022-07-23T14:15:02;6.00;;;4.20;;
38224;SDS011;24025;48.138;11.428;2022-07-23T14:17:35;6.28;;;4.03;;
38224;SDS011;24025;48.138;11.428;2022-07-23T14:20:08;6.57;;;5.40;;
38224;SDS011;24025;48.138;11.428;2022-07-23T14:22:39;5.93;;;4.82;;
38224;SDS011;24025;48.138;11.428;2022-07-23T14:25:10;4.83;;;4.40;;
38224;SDS011;24025;48.138;11.428;2022-07-23T14:27:42;7.43;;;4.20;;
38224;SDS011;24025;48.138;11.428;2022-07-23T14:30:13;6.80;;;4.78;;
38224;SDS011;24025;48.138;11.428;2022-07-23T14:35:15;5.18;;;4.38;;
38224;SDS011;24025;48.138;11.428;2022-07-23T14:37:45;7.40;;;4.40;;
38224;SDS011;24025;48.138;11.428;2022-07-23T14:40:16;4.83;;;4.30;;
38224;SDS011;24025;48.138;11.428;2022-07-23T14:42:46;4.60;;;3.83;;
38224;SDS011;24025;48.138;11.428;2022-07-23T14:45:17;4.40;;;4.00;;
38224;SDS011;24025;48.138;11.428;2022-07-23T14:47:47;5.00;;;4.50;;
38224;SDS011;24025;48.138;11.428;2022-07-23T14:50:18;4.60;;;4.20;;
38224;SDS011;24025;48.138;11.428;2022-07-23T14:52:48;5.63;;;4.03;;
38224;SDS011;24025;48.138;11.428;2022-07-23T14:55:19;5.90;;;4.63;;
38224;SDS011;24025;48.138;11.428;2022-07-23T14:57:49;6.73;;;4.63;;
38224;SDS011;24025;48.138;11.428;2022-07-23T15:00:20;5.17;;;4.43;;
38224;SDS011;24025;48.138;11.428;2022-07-23T15:02:50;6.53;;;4.77;;
38224;SDS011;24025;48.138;11.428;2022-07-23T15:05:22;8.55;;;4.93;;
38224;SDS011;24025;48.138;11.428;2022-07-23T15:07:53;5.53;;;4.17;;
38224;SDS011;24025;48.138;11.428;2022-07-23T15:10:23;7.10;;;4.27;;
38224;SDS011;24025;48.138;11.428;2022-07-23T15:12:54;8.70;;;4.83;;
38224;SDS011;24025;48.138;11.428;2022-07-23T15:15:24;8.10;;;4.10;;
38224;SDS011;24025;48.138;11.428;2022-07-23T15:17:55;6.23;;;4.37;;
38224;SDS011;24025;48.138;11.428;2022-07-23T15:20:25;5.20;;;4.63;;
38224;SDS011;24025;48.138;11.428;2022-07-23T15:22:56;4.70;;;4.30;;
38224;SDS011;24025;48.138;11.428;2022-07-23T15:25:26;5.20;;;4.70;;
38224;SDS011;24025;48.138;11.428;2022-07-23T15:27:57;7.13;;;4.77;;
38224;SDS011;24025;48.138;11.428;2022-07-23T15:30:28;5.30;;;4.80;;
38224;SDS011;24025;48.138;11.428;2022-07-23T15:32:59;6.63;;;4.93;;
38224;SDS011;24025;48.138;11.428;2022-07-23T15:35:30;5.17;;;4.67;;
38224;SDS011;24025;48.138;11.428;2022-07-23T15:38:01;5.65;;;5.15;;
38224;SDS011;24025;48.138;11.428;2022-07-23T15:40:32;5.50;;;5.00;;
38224;SDS011;24025;48.138;11.428;2022-07-23T15:43:02;5.87;;;4.90;;
38224;SDS011;24025;48.138;11.428;2022-07-23T15:45:33;6.50;;;5.40;;
38224;SDS011;24025;48.138;11.428;2022-07-23T15:48:03;7.63;;;4.53;;
38224;SDS011;24025;48.138;11.428;2022-07-23T15:50:34;5.00;;;4.50;;
38224;SDS011;24025;48.138;11.428;2022-07-23T15:53:04;6.75;;;4.85;;
38224;SDS011;24025;48.138;11.428;2022-07-23T15:55:35;6.07;;;4.15;;
38224;SDS011;24025;48.138;11.428;2022-07-23T15:58:06;9.48;;;4.57;;